createdAt,value
2023-02-02T00:01:01.287Z,18.60
2023-02-02T00:03:29.694Z,17.20
2023-02-02T00:05:57.339Z,17.90
2023-02-02T00:08:24.294Z,18.80
2023-02-02T00:10:51.513Z,17.70
2023-02-02T00:13:18.347Z,18.20
2023-02-02T00:15:45.937Z,18.70
2023-02-02T00:18:12.760Z,17.20
2023-02-02T00:20:39.891Z,18.40
2023-02-02T00:23:06.697Z,18.10
2023-02-02T00:25:34.035Z,17.50
2023-02-02T00:28:01.235Z,17.70
2023-02-02T00:30:28.403Z,17.70
2023-02-02T00:32:56.482Z,18.20
2023-02-02T00:35:24.119Z,17.90
2023-02-02T00:37:51.555Z,18.30
2023-02-02T00:40:18.421Z,17.60
2023-02-02T00:42:49.896Z,17.70
2023-02-02T00:45:16.892Z,17.90
2023-02-02T00:47:47.996Z,16.80
2023-02-02T00:50:19.263Z,17.00
2023-02-02T00:52:47.709Z,17.10
2023-02-02T00:55:15.211Z,17.30
2023-02-02T00:57:46.326Z,16.40
2023-02-02T01:00:23.786Z,17.90
2023-02-02T01:02:51.709Z,17.20
2023-02-02T01:05:19.363Z,17.40
2023-02-02T01:07:46.746Z,18.20
2023-02-02T01:10:17.387Z,17.00
2023-02-02T01:12:44.727Z,17.30
2023-02-02T01:15:13.575Z,17.60
2023-02-02T01:17:41.315Z,18.40
2023-02-02T01:20:10.611Z,17.10
2023-02-02T01:22:38.177Z,18.00
2023-02-02T01:25:05.593Z,16.10
2023-02-02T01:27:32.700Z,18.00
2023-02-02T01:29:59.573Z,18.00
2023-02-02T01:32:26.513Z,17.60
2023-02-02T01:34:53.653Z,17.80
2023-02-02T01:37:21.807Z,17.10
2023-02-02T01:39:48.809Z,17.60
2023-02-02T01:42:19.666Z,18.80
2023-02-02T01:45:03.438Z,18.00
2023-02-02T01:47:37.784Z,17.90
2023-02-02T01:50:05.414Z,18.40
2023-02-02T01:52:32.504Z,17.40
2023-02-02T01:55:01.128Z,18.10
2023-02-02T01:57:41.320Z,19.00
2023-02-02T02:00:10.921Z,17.30
2023-02-02T02:02:44.627Z,17.10
2023-02-02T02:05:11.609Z,16.40
2023-02-02T02:07:40.156Z,18.60
2023-02-02T02:10:08.009Z,17.80
2023-02-02T02:12:35.490Z,17.70
2023-02-02T02:15:24.409Z,18.50
2023-02-02T02:18:28.371Z,17.00
2023-02-02T02:21:26.088Z,17.50
2023-02-02T02:24:39.079Z,16.90
2023-02-02T02:27:50.081Z,17.10
2023-02-02T02:30:50.469Z,17.90
2023-02-02T02:33:30.633Z,17.10
2023-02-02T02:36:03.979Z,16.80
2023-02-02T02:38:46.154Z,17.80
2023-02-02T02:41:22.208Z,17.70
2023-02-02T02:43:56.319Z,15.80
2023-02-02T02:46:23.513Z,16.20
2023-02-02T02:48:50.607Z,15.50
2023-02-02T02:51:52.659Z,15.50
2023-02-02T02:54:27.120Z,16.50
2023-02-02T02:57:01.318Z,16.30
2023-02-02T02:59:50.233Z,16.00
2023-02-02T03:02:36.902Z,28.60
2023-02-02T03:05:19.513Z,15.40
2023-02-02T03:08:08.630Z,15.00
2023-02-02T03:10:36.410Z,15.20
2023-02-02T03:13:07.011Z,14.10
2023-02-02T03:15:33.886Z,14.70
2023-02-02T03:18:01.744Z,14.60
2023-02-02T03:20:28.983Z,14.50
2023-02-02T03:22:55.801Z,14.30
2023-02-02T03:25:23.536Z,13.60
2023-02-02T03:27:51.445Z,15.00
2023-02-02T03:30:18.488Z,13.80
2023-02-02T03:32:46.130Z,14.00
2023-02-02T03:35:13.129Z,14.20
2023-02-02T03:37:40.047Z,14.00
2023-02-02T03:40:07.667Z,13.70
2023-02-02T03:42:34.646Z,14.30
2023-02-02T03:45:01.683Z,13.60
2023-02-02T03:47:29.509Z,14.70
2023-02-02T03:57:36.055Z,14.30
2023-02-02T04:00:04.941Z,13.90
2023-02-02T04:02:40.635Z,14.30
2023-02-02T04:05:08.933Z,14.20
2023-02-02T07:27:28.319Z,20.00
2023-02-02T07:29:55.660Z,20.10
2023-02-02T07:32:22.620Z,19.50
2023-02-02T07:34:49.763Z,18.60
2023-02-02T07:37:16.654Z,17.70
2023-02-02T07:39:43.927Z,17.80
2023-02-02T07:42:12.273Z,18.80
2023-02-02T07:44:40.116Z,17.50
2023-02-02T07:47:07.251Z,17.70
2023-02-02T07:49:34.129Z,17.20
2023-02-02T07:52:01.432Z,16.40
2023-02-02T07:54:28.675Z,15.80
2023-02-02T07:56:55.658Z,15.40
2023-02-02T07:59:22.553Z,14.70
2023-02-02T08:01:49.612Z,15.10
2023-02-02T08:04:16.842Z,15.30
2023-02-02T08:06:43.794Z,15.20
2023-02-02T08:09:10.833Z,14.90
2023-02-02T08:11:38.128Z,14.90
2023-02-02T08:14:05.552Z,13.80
2023-02-02T08:16:33.076Z,13.70
2023-02-02T08:19:00.204Z,14.20
2023-02-02T08:21:27.267Z,14.30
2023-02-02T08:23:54.205Z,14.10
2023-02-02T08:26:21.720Z,13.50
2023-02-02T08:28:51.935Z,13.70
2023-02-02T08:31:21.149Z,13.70
2023-02-02T08:33:48.888Z,13.70
2023-02-02T08:36:17.639Z,15.10
2023-02-02T08:38:47.369Z,13.40
2023-02-02T08:41:16.202Z,12.50
2023-02-02T08:43:43.866Z,13.20
2023-02-02T08:46:14.614Z,13.40
2023-02-02T08:48:41.686Z,14.20
2023-02-02T08:51:10.507Z,13.20
2023-02-02T08:53:42.740Z,12.60
2023-02-02T08:56:11.995Z,13.40
2023-02-02T08:58:38.984Z,13.60
2023-02-02T09:01:27.993Z,13.00
2023-02-02T09:03:58.758Z,12.00
2023-02-02T09:06:35.292Z,12.00
2023-02-02T09:09:05.593Z,12.90
2023-02-02T09:11:33.996Z,12.50
2023-02-02T09:14:06.841Z,11.80
2023-02-02T09:16:36.733Z,11.80
2023-02-02T09:19:05.605Z,11.20
2023-02-02T09:21:37.625Z,12.50
2023-02-02T09:24:10.256Z,12.40
2023-02-02T09:26:40.563Z,11.70
2023-02-02T09:29:12.049Z,12.00
2023-02-02T09:31:40.410Z,13.10
2023-02-02T09:34:10.588Z,12.90
2023-02-02T09:36:39.296Z,16.10
2023-02-02T09:39:09.749Z,12.90
2023-02-02T09:41:38.239Z,13.40
2023-02-02T09:44:33.101Z,13.20
2023-02-02T09:47:18.326Z,13.10
2023-02-02T09:50:19.412Z,12.90
2023-02-02T09:53:11.505Z,13.50
2023-02-02T09:55:41.624Z,12.00
2023-02-02T09:58:20.130Z,12.70
2023-02-02T10:00:52.710Z,15.60
2023-02-02T10:04:16.451Z,13.70
2023-02-02T10:06:49.487Z,20.20
2023-02-02T10:09:43.974Z,13.30
2023-02-02T10:12:53.858Z,11.60
2023-02-02T10:15:28.622Z,11.60
2023-02-02T10:17:59.624Z,10.10
2023-02-02T10:20:33.068Z,9.40
2023-02-02T10:23:12.324Z,9.90
2023-02-02T10:25:41.562Z,8.90
2023-02-02T10:28:17.635Z,9.70
2023-02-02T10:30:55.676Z,9.00
2023-02-02T10:33:39.968Z,8.00
2023-02-02T10:36:22.114Z,8.00
2023-02-02T10:39:00.664Z,7.70
2023-02-02T10:41:38.877Z,7.60
2023-02-02T10:44:16.024Z,7.30
2023-02-02T10:46:47.349Z,6.60
2023-02-02T10:49:33.637Z,6.70
2023-02-02T10:52:34.379Z,7.10
2023-02-02T10:55:19.309Z,7.00
2023-02-02T10:57:57.621Z,6.60
2023-02-02T11:00:35.399Z,6.00
2023-02-02T11:03:05.246Z,5.40
2023-02-02T11:05:54.159Z,6.70
2023-02-02T11:08:30.709Z,5.70
2023-02-02T11:10:59.414Z,6.70
2023-02-02T11:13:32.326Z,6.40
2023-02-02T11:16:16.090Z,7.10
2023-02-02T11:18:44.717Z,6.70
2023-02-02T11:21:20.820Z,14.30
2023-02-02T11:24:00.424Z,14.50
2023-02-02T11:26:56.626Z,7.00
2023-02-02T11:29:44.486Z,5.10
2023-02-02T11:32:35.463Z,4.80
2023-02-02T11:35:08.470Z,4.60
2023-02-02T11:37:37.969Z,4.40
2023-02-02T11:40:27.620Z,4.30
2023-02-02T11:42:57.163Z,3.90
2023-02-02T11:45:35.704Z,4.00
2023-02-02T11:48:22.140Z,3.90
2023-02-02T11:50:52.370Z,3.90
2023-02-02T11:53:26.013Z,4.20
2023-02-02T11:55:55.179Z,4.20
2023-02-02T11:58:30.961Z,4.10
2023-02-02T12:01:03.958Z,3.80
2023-02-02T12:03:41.278Z,4.80
2023-02-02T12:06:23.910Z,4.70
2023-02-02T12:08:58.431Z,4.30
2023-02-02T12:11:39.443Z,4.70
2023-02-02T12:14:18.297Z,5.00
2023-02-02T12:17:10.380Z,5.20
2023-02-02T12:19:57.861Z,5.40
2023-02-02T12:23:04.642Z,8.60
2023-02-02T12:25:59.328Z,11.40
2023-02-02T12:28:30.399Z,14.80
2023-02-02T12:31:13.813Z,11.60
2023-02-02T12:33:50.708Z,7.80
2023-02-02T12:36:22.228Z,8.30
2023-02-02T12:38:58.039Z,7.70
2023-02-02T12:41:45.091Z,8.80
2023-02-02T12:44:42.551Z,9.70
2023-02-02T12:47:29.586Z,8.20
2023-02-02T12:50:10.352Z,8.30
2023-02-02T12:53:07.553Z,8.90
2023-02-02T12:55:57.833Z,8.30
2023-02-02T12:58:41.591Z,8.50
2023-02-02T13:01:22.008Z,8.70
2023-02-02T13:03:50.435Z,9.40
2023-02-02T13:06:43.756Z,20.90
2023-02-02T13:11:46.110Z,9.00
2023-02-02T13:14:31.891Z,8.90
2023-02-02T13:17:03.005Z,8.50
2023-02-02T13:19:52.324Z,7.90
2023-02-02T13:22:32.435Z,8.50
2023-02-02T13:25:01.470Z,7.50
2023-02-02T13:27:30.876Z,8.10
2023-02-02T13:30:30.159Z,7.90
2023-02-02T13:33:00.503Z,9.00
2023-02-02T13:35:38.676Z,8.20
2023-02-02T13:38:21.388Z,8.40
2023-02-02T13:40:50.240Z,8.90
2023-02-02T13:43:21.958Z,9.70
2023-02-02T13:46:21.818Z,9.50
2023-02-02T13:49:11.064Z,9.90
2023-02-02T13:52:04.293Z,14.30
2023-02-02T13:54:38.641Z,8.60
2023-02-02T13:57:28.984Z,6.80
2023-02-02T14:00:36.399Z,10.10
2023-02-02T14:03:06.347Z,10.20
2023-02-02T14:05:39.659Z,9.90
2023-02-02T14:08:30.268Z,14.60
2023-02-02T14:11:00.947Z,7.40
2023-02-02T14:13:55.263Z,9.40
2023-02-02T14:16:45.742Z,8.10
2023-02-02T14:19:16.270Z,10.10
2023-02-02T14:21:44.597Z,17.00
2023-02-02T14:24:34.867Z,15.30
2023-02-02T14:27:23.503Z,12.10
2023-02-02T14:29:54.816Z,9.80
2023-02-02T14:32:29.498Z,8.50
2023-02-02T14:35:11.269Z,8.70
2023-02-02T14:37:43.347Z,9.80
2023-02-02T14:40:43.854Z,9.30
2023-02-02T14:43:55.613Z,12.00
2023-02-02T14:46:40.384Z,11.60
2023-02-02T14:49:13.576Z,13.70
2023-02-02T14:54:26.642Z,12.80
2023-02-02T14:56:59.477Z,11.30
2023-02-02T14:59:39.078Z,8.30
2023-02-02T15:02:15.715Z,8.80
2023-02-02T15:04:48.025Z,8.00
2023-02-02T15:07:25.423Z,7.60
2023-02-02T15:09:58.431Z,6.90
2023-02-02T15:12:40.904Z,7.20
2023-02-02T15:15:12.072Z,8.30
2023-02-02T15:17:41.038Z,11.70
2023-02-02T15:20:32.055Z,11.70
2023-02-02T15:23:39.301Z,10.10
2023-02-02T15:26:28.739Z,9.90
2023-02-02T15:29:19.728Z,9.50
2023-02-02T15:31:52.380Z,9.70
2023-02-02T15:34:27.228Z,9.60
2023-02-02T15:36:57.742Z,11.10
2023-02-02T15:39:41.867Z,10.60
2023-02-02T15:42:40.695Z,14.20
2023-02-02T15:45:35.792Z,11.00
2023-02-02T15:48:16.432Z,10.80
2023-02-02T15:50:46.855Z,10.60
2023-02-02T15:53:20.511Z,10.90
2023-02-02T15:55:49.032Z,13.50
2023-02-02T15:58:26.544Z,12.50
2023-02-02T16:01:03.667Z,10.00
2023-02-02T16:03:42.561Z,14.50
2023-02-02T16:06:10.775Z,10.50
2023-02-02T16:08:40.139Z,9.90
2023-02-02T16:11:19.462Z,9.50
2023-02-02T16:14:10.662Z,9.70
2023-02-02T16:16:40.129Z,9.50
2023-02-02T16:19:09.103Z,9.80
2023-02-02T16:21:55.094Z,10.20
2023-02-02T16:24:24.683Z,9.90
2023-02-02T16:26:54.359Z,10.20
2023-02-02T16:29:23.287Z,9.70
2023-02-02T16:31:51.996Z,10.50
2023-02-02T16:34:40.593Z,10.10
2023-02-02T16:37:27.549Z,10.80
2023-02-02T16:39:57.905Z,11.90
2023-02-02T16:42:28.876Z,11.70
2023-02-02T16:44:59.613Z,13.20
2023-02-02T16:47:28.130Z,11.40
2023-02-02T16:50:26.830Z,9.90
2023-02-02T16:53:04.647Z,9.90
2023-02-02T16:55:49.521Z,9.20
2023-02-02T16:58:22.585Z,8.30
2023-02-02T17:01:16.843Z,10.10
2023-02-02T17:03:53.527Z,9.70
2023-02-02T17:06:41.597Z,9.10
2023-02-02T17:09:25.912Z,10.10
2023-02-02T17:12:34.940Z,9.70
2023-02-02T17:15:29.405Z,12.10
2023-02-02T17:17:59.336Z,14.40
2023-02-02T17:20:27.825Z,11.40
2023-02-02T17:23:01.696Z,11.20
2023-02-02T17:25:36.669Z,18.50
2023-02-02T17:28:08.190Z,12.00
2023-02-02T17:30:41.456Z,13.50
2023-02-02T17:33:16.387Z,12.70
2023-02-02T17:35:54.675Z,11.10
2023-02-02T17:38:24.657Z,11.90
2023-02-02T17:40:53.412Z,10.40
2023-02-02T17:43:23.871Z,9.80
2023-02-02T17:45:52.252Z,9.40
2023-02-02T17:48:21.056Z,8.90
2023-02-02T17:50:49.298Z,9.10
2023-02-02T17:53:19.779Z,8.80
2023-02-02T17:55:49.839Z,8.50
2023-02-02T17:58:19.005Z,8.70
2023-02-02T18:00:49.277Z,8.70
2023-02-02T18:03:33.706Z,9.20
2023-02-02T18:06:04.037Z,8.80
2023-02-02T18:08:32.908Z,8.70
2023-02-02T18:11:01.411Z,8.40
2023-02-02T18:13:31.047Z,8.20
2023-02-02T18:16:02.374Z,8.50
2023-02-02T18:18:31.868Z,11.70
2023-02-02T18:21:00.367Z,9.50
2023-02-02T18:23:29.309Z,10.70
2023-02-02T18:25:57.639Z,11.60
2023-02-02T18:28:26.446Z,14.20
2023-02-02T18:30:55.705Z,12.10
2023-02-02T18:33:24.764Z,10.20
2023-02-02T18:35:53.380Z,26.70
2023-02-02T18:38:24.496Z,13.10
2023-02-02T18:40:58.880Z,14.30
2023-02-02T18:43:27.913Z,8.50
2023-02-02T18:46:07.286Z,15.60
2023-02-02T18:48:37.087Z,9.10
2023-02-02T18:51:12.452Z,8.30
2023-02-02T18:53:45.160Z,8.50
2023-02-02T18:56:14.520Z,9.00
2023-02-02T18:58:42.990Z,10.10
2023-02-02T19:01:16.785Z,9.10
2023-02-02T19:03:49.664Z,8.60
2023-02-02T19:06:38.020Z,8.20
2023-02-02T19:09:06.472Z,9.00
2023-02-02T19:11:44.693Z,8.80
2023-02-02T19:14:26.760Z,8.60
2023-02-02T19:16:58.682Z,8.30
2023-02-02T19:19:30.793Z,8.00
2023-02-02T19:22:03.396Z,7.70
2023-02-02T19:24:37.616Z,7.60
2023-02-02T19:27:15.940Z,7.50
2023-02-02T19:29:55.262Z,8.80
2023-02-02T19:32:27.114Z,7.60
2023-02-02T19:34:58.225Z,7.80
2023-02-02T19:37:30.714Z,7.80
2023-02-02T19:40:08.620Z,7.40
2023-02-02T19:45:23.834Z,8.70
2023-02-02T19:47:52.765Z,8.20
2023-02-02T19:50:22.792Z,7.70
2023-02-02T19:52:51.679Z,8.50
2023-02-02T19:55:28.966Z,8.50
2023-02-02T19:58:01.735Z,11.00
2023-02-02T20:00:30.558Z,10.90
2023-02-02T20:03:02.873Z,14.70
2023-02-02T20:05:46.632Z,13.70
2023-02-02T20:08:30.985Z,18.20
2023-02-02T20:11:00.876Z,11.40
2023-02-02T20:13:48.719Z,8.60
2023-02-02T20:16:19.455Z,7.00
2023-02-02T20:18:54.696Z,7.00
2023-02-02T20:21:28.047Z,11.30
2023-02-02T20:23:57.518Z,7.90
2023-02-02T20:26:29.480Z,7.70
2023-02-02T20:28:59.218Z,7.40
2023-02-02T20:31:35.915Z,7.30
2023-02-02T20:34:24.286Z,6.50
2023-02-02T20:36:55.735Z,6.50
2023-02-02T20:39:37.299Z,10.30
2023-02-02T20:42:05.895Z,7.30
2023-02-02T20:44:35.295Z,7.60
2023-02-02T20:47:04.284Z,7.80
2023-02-02T20:49:35.009Z,8.00
2023-02-02T20:52:04.660Z,7.60
2023-02-02T20:54:34.199Z,7.80
2023-02-02T20:57:02.544Z,8.10
2023-02-02T20:59:34.225Z,6.80
2023-02-02T21:02:06.329Z,6.50
2023-02-02T21:04:35.069Z,6.70
2023-02-02T21:07:04.383Z,6.70
2023-02-02T21:09:33.362Z,5.60
2023-02-02T21:12:02.870Z,6.60
2023-02-02T21:14:31.892Z,8.40
2023-02-02T21:17:13.993Z,12.20
2023-02-02T21:22:14.569Z,9.80
2023-02-02T21:24:43.705Z,7.80
2023-02-02T21:27:12.182Z,6.80
2023-02-02T21:29:40.916Z,6.70
2023-02-02T21:32:09.372Z,6.80
2023-02-02T21:34:37.973Z,7.00
2023-02-02T21:37:14.426Z,6.90
2023-02-02T21:39:49.796Z,6.10
2023-02-02T21:42:20.160Z,7.40
2023-02-02T21:44:54.366Z,6.40
2023-02-02T21:47:26.904Z,6.70
2023-02-02T21:49:56.964Z,7.20
2023-02-02T21:52:25.889Z,8.40
2023-02-02T21:54:54.030Z,8.80
2023-02-02T21:57:35.581Z,11.60
2023-02-02T22:00:28.816Z,12.80
2023-02-02T22:02:59.181Z,38.90
2023-02-02T22:05:34.609Z,42.50
2023-02-02T22:08:18.163Z,17.10
2023-02-02T22:10:47.539Z,15.70
2023-02-02T22:13:21.214Z,9.40
2023-02-02T22:15:52.499Z,7.30
2023-02-02T22:18:23.412Z,7.40
2023-02-02T22:20:53.126Z,5.80
2023-02-02T22:23:22.738Z,5.70
2023-02-02T22:25:53.636Z,5.20
2023-02-02T22:28:30.258Z,5.40
2023-02-02T22:31:00.978Z,5.10
2023-02-02T22:33:32.537Z,5.10
2023-02-02T22:36:09.768Z,5.00
2023-02-02T22:38:38.164Z,5.40
2023-02-02T22:41:08.868Z,5.00
2023-02-02T22:43:37.256Z,5.50
2023-02-02T22:46:05.488Z,5.00
2023-02-02T22:48:33.726Z,4.90
2023-02-02T22:51:01.912Z,5.10
2023-02-02T22:53:32.602Z,4.70
2023-02-02T22:56:00.891Z,4.80
2023-02-02T22:58:31.652Z,5.30
2023-02-02T23:01:00.069Z,5.00
2023-02-02T23:03:28.251Z,5.00
2023-02-02T23:05:56.786Z,5.30
2023-02-02T23:08:25.116Z,5.30
2023-02-02T23:11:13.170Z,5.40
2023-02-02T23:13:41.384Z,5.60
2023-02-02T23:16:11.090Z,4.90
2023-02-02T23:18:39.337Z,4.80
2023-02-02T23:21:07.817Z,5.00
2023-02-02T23:23:36.023Z,5.40
2023-02-02T23:26:04.880Z,5.00
2023-02-02T23:28:33.031Z,5.00
2023-02-02T23:31:02.481Z,5.00
2023-02-02T23:33:31.296Z,4.80
2023-02-02T23:35:59.682Z,5.40
2023-02-02T23:38:27.903Z,5.00
2023-02-02T23:40:56.293Z,4.80
2023-02-02T23:43:24.553Z,4.90
2023-02-02T23:45:53.287Z,4.80
2023-02-02T23:48:21.548Z,5.00
2023-02-02T23:50:49.768Z,5.00
2023-02-02T23:53:18.021Z,4.80
2023-02-02T23:55:49.268Z,4.40
2023-02-02T23:58:19.154Z,4.70
